Time;durP1;ratioP1;P1;durP2;ratioP2;P2;SDS_P1;SDS_P2;PMS_P1;PMS_P2;Temp;Humidity;BMP_temperature;BMP_pressure;BME280_temperature;BME280_humidity;BME280_pressure;Samples;Min_cycle;Max_cycle;Signal;HPM_P1;HPM_P2
2023/07/23 00:02:05;;;;;;;7.30;6.10;;;;;;;25.95;53.72;99747.69;108090;1252;72564;-70
2023/07/23 00:04:32;;;;;;;6.90;6.30;;;;;;;25.99;53.50;99752.48;108105;1253;61670;-69
2023/07/23 00:07:00;;;;;;;7.70;5.80;;;;;;;25.93;53.59;99754.13;108157;1253;61478;-69
2023/07/23 00:09:27;;;;;;;7.00;5.70;;;;;;;25.85;53.69;99751.76;108126;1252;72964;-71
2023/07/23 00:11:54;;;;;;;6.60;5.90;;;;;;;25.86;53.69;99756.41;108118;1257;70302;-69
2023/07/23 00:14:22;;;;;;;7.50;5.60;;;;;;;25.84;53.64;99761.29;108009;1255;71284;-69
2023/07/23 00:16:50;;;;;;;9.90;5.80;;;;;;;25.83;53.54;99765.10;108058;1254;61710;-69
2023/07/23 00:19:19;;;;;;;6.20;5.60;;;;;;;25.85;53.43;99771.09;107996;1252;60361;-69
2023/07/23 00:21:47;;;;;;;6.40;5.70;;;;;;;25.81;53.54;99770.34;108051;1253;73133;-69
2023/07/23 00:24:16;;;;;;;6.70;6.00;;;;;;;25.85;53.64;99769.80;108038;1253;70579;-69
2023/07/23 00:26:43;;;;;;;6.30;5.60;;;;;;;25.74;53.75;99768.90;108035;1253;72682;-69
2023/07/23 00:29:11;;;;;;;8.20;6.00;;;;;;;25.60;54.24;99769.56;108057;1254;61713;-69
2023/07/23 00:31:38;;;;;;;7.00;5.70;;;;;;;25.70;54.06;99770.08;108075;1259;60316;-69
2023/07/23 00:34:06;;;;;;;6.80;5.60;;;;;;;25.79;53.86;99769.86;108147;1253;73853;-68
2023/07/23 00:36:33;;;;;;;7.50;6.00;;;;;;;25.81;53.70;99774.35;108133;1254;70135;-69
2023/07/23 00:39:02;;;;;;;6.90;5.40;;;;;;;25.76;53.91;99781.17;108116;1254;73143;-69
2023/07/23 00:41:30;;;;;;;8.80;5.70;;;;;;;25.83;53.70;99782.63;108070;1254;60684;-68
2023/07/23 00:43:57;;;;;;;6.10;5.50;;;;;;;25.80;53.80;99782.34;108043;1252;59927;-69
2023/07/23 00:46:25;;;;;;;6.10;5.30;;;;;;;25.80;53.65;99785.75;108054;1254;74051;-66
2023/07/23 00:48:52;;;;;;;6.10;5.50;;;;;;;25.82;53.61;99786.23;107842;1254;70984;-68
2023/07/23 00:51:20;;;;;;;6.00;5.20;;;;;;;25.85;53.42;99785.93;107962;1254;72200;-69
2023/07/23 00:53:48;;;;;;;5.30;4.30;;;;;;;25.75;53.55;99791.13;107933;1252;61292;-69
2023/07/23 00:56:16;;;;;;;7.00;5.20;;;;;;;25.80;53.52;99788.66;108004;1256;60603;-69
2023/07/23 00:58:45;;;;;;;5.00;4.60;;;;;;;25.81;53.30;99789.98;108162;1252;73934;-70
2023/07/23 01:01:13;;;;;;;5.10;4.60;;;;;;;25.65;53.80;99793.95;108177;1254;68706;-68
2023/07/23 01:03:40;;;;;;;6.60;5.30;;;;;;;25.74;53.60;99794.46;108100;1252;72758;-69
2023/07/23 01:06:08;;;;;;;5.20;4.70;;;;;;;25.78;53.40;99791.98;108051;1253;61158;-68
2023/07/23 01:08:35;;;;;;;5.00;4.60;;;;;;;25.86;53.25;99797.15;108113;1253;60543;-69
2023/07/23 01:11:03;;;;;;;6.90;4.80;;;;;;;25.84;53.41;99801.88;108020;1254;73771;-70
2023/07/23 01:13:30;;;;;;;6.40;4.90;;;;;;;25.65;53.69;99804.58;108084;1258;70282;-69
2023/07/23 01:15:58;;;;;;;5.10;4.60;;;;;;;25.43;54.16;99807.39;107825;1253;71473;-69
2023/07/23 01:18:25;;;;;;;5.10;4.50;;;;;;;25.28;54.45;99809.85;107920;1254;60488;-67
2023/07/23 01:20:53;;;;;;;4.60;4.20;;;;;;;25.34;54.37;99807.15;108183;1256;60011;-69
2023/07/23 01:23:21;;;;;;;7.20;4.40;;;;;;;25.40;54.30;99811.52;108111;1252;73795;-68
2023/07/23 01:25:49;;;;;;;4.80;3.80;;;;;;;25.46;54.11;99811.14;107996;1254;69530;-67
2023/07/23 01:28:16;;;;;;;3.70;3.40;;;;;;;25.55;53.79;99811.80;107910;1253;73529;-69
2023/07/23 01:30:44;;;;;;;4.50;4.10;;;;;;;25.60;53.67;99816.92;108081;1254;60447;-68
2023/07/23 01:33:11;;;;;;;4.60;3.50;;;;;;;25.64;53.41;99816.91;108093;1253;60309;-69
2023/07/23 01:35:39;;;;;;;6.40;4.40;;;;;;;25.60;53.48;99814.63;108024;1254;72068;-69
2023/07/23 01:38:06;;;;;;;3.90;3.30;;;;;;;25.53;53.47;99815.20;108092;1253;70427;-68
2023/07/23 01:40:34;;;;;;;4.30;3.30;;;;;;;25.64;53.28;99819.64;107858;1257;71700;-69
2023/07/23 01:43:02;;;;;;;5.00;3.00;;;;;;;25.70;53.08;99821.86;108071;1253;61664;-69
2023/07/23 01:45:29;;;;;;;6.40;3.80;;;;;;;25.72;53.01;99820.21;107890;1252;60414;-67
2023/07/23 01:47:57;;;;;;;5.90;3.00;;;;;;;25.73;52.97;99824.79;108013;1253;74133;-66
2023/07/23 01:50:24;;;;;;;4.00;3.10;;;;;;;25.74;52.81;99821.30;108064;1254;69955;-69
2023/07/23 01:52:52;;;;;;;7.80;3.30;;;;;;;25.60;53.13;99827.95;108007;1256;73147;-67
2023/07/23 01:55:19;;;;;;;3.40;2.90;;;;;;;25.61;53.17;99824.41;107852;1257;62532;-66
2023/07/23 01:57:46;;;;;;;5.60;3.30;;;;;;;25.71;52.81;99825.66;108084;1253;60417;-64
2023/07/23 02:00:14;;;;;;;3.10;2.80;;;;;;;25.66;52.93;99825.64;108065;1254;73771;-67
2023/07/23 02:02:41;;;;;;;5.00;3.30;;;;;;;25.63;52.89;99826.58;108107;1253;69985;-67
2023/07/23 02:05:09;;;;;;;3.20;2.90;;;;;;;25.67;52.90;99827.43;107929;1256;72701;-68
2023/07/23 02:07:36;;;;;;;4.50;2.60;;;;;;;25.67;52.89;99828.28;107884;1252;60456;-67
2023/07/23 02:10:05;;;;;;;4.00;2.90;;;;;;;25.77;52.62;99830.10;108078;1254;60775;-69
2023/07/23 02:12:33;;;;;;;2.70;2.50;;;;;;;25.75;52.60;99829.63;108061;1253;73057;-69
2023/07/23 02:15:01;;;;;;;4.70;2.80;;;;;;;25.77;52.60;99833.42;108073;1253;70095;-67
2023/07/23 02:17:28;;;;;;;4.80;3.00;;;;;;;25.74;52.62;99834.04;107995;1256;71456;-70
2023/07/23 02:19:56;;;;;;;4.70;2.90;;;;;;;25.82;52.51;99836.80;108027;1253;61736;-68
2023/07/23 02:22:24;;;;;;;4.30;3.10;;;;;;;25.82;52.46;99829.29;108040;1254;59144;-68
2023/07/23 02:24:51;;;;;;;3.50;2.70;;;;;;;25.89;52.23;99832.98;108018;1254;73813;-69
2023/07/23 02:27:19;;;;;;;3.20;2.50;;;;;;;25.77;52.41;99833.31;108029;1254;70421;-68
2023/07/23 02:29:46;;;;;;;2.60;2.40;;;;;;;25.70;52.54;99832.23;107963;1256;72576;-69
2023/07/23 02:32:13;;;;;;;3.00;2.70;;;;;;;25.70;52.49;99833.89;108041;1253;61429;-67
2023/07/23 02:34:41;;;;;;;4.10;2.60;;;;;;;25.63;52.61;99834.42;108082;1253;60452;-67
2023/07/23 02:37:08;;;;;;;3.20;2.80;;;;;;;25.68;52.47;99834.31;108030;1253;73819;-69
2023/07/23 02:39:36;;;;;;;2.90;2.40;;;;;;;25.71;52.36;99835.45;108117;1254;70009;-69
2023/07/23 02:42:03;;;;;;;3.40;2.30;;;;;;;25.84;51.94;99839.69;107950;1256;72699;-69
2023/07/23 02:44:31;;;;;;;2.60;2.30;;;;;;;25.81;51.95;99838.89;108098;1254;60698;-70
2023/07/23 02:46:58;;;;;;;4.20;2.50;;;;;;;25.83;51.82;99840.46;107950;1253;60521;-67
2023/07/23 02:49:26;;;;;;;3.20;2.40;;;;;;;25.81;51.93;99842.81;108126;1254;76176;-68
2023/07/23 02:51:53;;;;;;;3.80;2.40;;;;;;;25.73;52.16;99847.59;108089;1253;69030;-67
2023/07/23 02:54:20;;;;;;;4.40;2.50;;;;;;;25.70;52.23;99843.98;107998;1253;72700;-69
2023/07/23 02:56:48;;;;;;;5.10;2.60;;;;;;;25.68;52.40;99842.51;108168;1253;62758;-68
2023/07/23 02:59:15;;;;;;;2.40;2.20;;;;;;;25.84;52.10;99849.06;107975;1252;60368;-69
2023/07/23 03:01:43;;;;;;;2.90;2.30;;;;;;;25.90;51.88;99853.55;107985;1253;73840;-67
2023/07/23 03:04:10;;;;;;;3.70;2.00;;;;;;;26.06;51.60;99855.67;108011;1254;68251;-68
2023/07/23 03:06:38;;;;;;;2.40;2.20;;;;;;;26.06;51.54;99864.65;108082;1254;73195;-69
2023/07/23 03:09:06;;;;;;;2.40;2.20;;;;;;;26.00;51.61;99869.59;108019;1254;63811;-68
2023/07/23 03:11:34;;;;;;;3.10;2.40;;;;;;;26.11;51.45;99868.27;108050;1252;60427;-67
2023/07/23 03:14:01;;;;;;;2.90;2.60;;;;;;;26.25;51.25;99870.06;108023;1254;72566;-69
2023/07/23 03:16:28;;;;;;;3.70;2.40;;;;;;;26.35;50.97;99874.48;108061;1253;68800;-68
2023/07/23 03:18:56;;;;;;;3.20;2.30;;;;;;;26.40;50.83;99875.21;108029;1253;72113;-69
2023/07/23 03:21:23;;;;;;;3.70;2.20;;;;;;;26.45;50.74;99880.30;107919;1252;61747;-67
2023/07/23 03:23:51;;;;;;;3.90;2.10;;;;;;;26.52;50.59;99883.61;108075;1254;60431;-67
2023/07/23 03:26:18;;;;;;;5.00;2.40;;;;;;;26.45;50.55;99887.26;108023;1253;74339;-66
2023/07/23 03:28:45;;;;;;;3.60;2.10;;;;;;;26.46;50.52;99890.77;108059;1253;73085;-68
2023/07/23 03:31:13;;;;;;;4.70;2.30;;;;;;;26.44;50.54;99890.96;108063;1253;72704;-69
2023/07/23 03:33:40;;;;;;;2.70;2.50;;;;;;;26.49;50.25;99889.37;108053;1254;60917;-69
2023/07/23 03:36:10;;;;;;;2.50;2.10;;;;;;;26.46;50.49;99892.56;108110;1254;60318;-69
2023/07/23 03:38:38;;;;;;;2.70;2.40;;;;;;;26.44;50.64;99895.47;107961;1253;74994;-68
2023/07/23 03:41:05;;;;;;;2.80;2.50;;;;;;;26.63;50.40;99896.77;108093;1254;69361;-69
2023/07/23 03:43:33;;;;;;;2.50;2.30;;;;;;;26.87;50.18;99892.27;108075;1253;72654;-71
2023/07/23 03:46:00;;;;;;;2.20;2.00;;;;;;;27.09;50.25;99894.95;108063;1253;60373;-68
2023/07/23 03:48:28;;;;;;;4.30;1.80;;;;;;;27.28;50.55;99892.66;108037;1253;60440;-69
2023/07/23 03:50:57;;;;;;;2.80;2.00;;;;;;;27.87;49.32;99888.70;107914;1253;249605;-70
2023/07/23 03:54:06;;;;;;;6.00;1.90;;;;;;;25.81;54.81;99896.09;104891;1292;600152;-69
2023/07/23 03:56:34;;;;;;;1.90;1.40;;;;;;;27.43;50.99;99894.30;107287;1264;61648;-68
2023/07/23 03:59:01;;;;;;;2.90;1.50;;;;;;;27.93;48.88;99896.63;107170;1271;59125;-70
2023/07/23 04:01:28;;;;;;;3.10;1.70;;;;;;;28.32;47.80;99897.57;107389;1263;71898;-69
2023/07/23 04:03:56;;;;;;;5.70;1.80;;;;;;;28.65;47.07;99895.17;107639;1256;69212;-67
2023/07/23 04:06:25;;;;;;;2.20;1.70;;;;;;;28.80;46.67;99894.53;107576;1263;72691;-69
2023/07/23 04:08:52;;;;;;;1.90;1.80;;;;;;;28.87;46.29;99893.32;107640;1256;276080;-69
2023/07/23 04:11:19;;;;;;;5.20;1.60;;;;;;;29.10;46.18;99891.98;107993;1256;60045;-69
2023/07/23 04:13:48;;;;;;;1.70;1.60;;;;;;;29.38;45.26;99893.05;107850;1257;72257;-69
2023/07/23 04:16:15;;;;;;;2.80;1.70;;;;;;;29.49;44.82;99893.66;107891;1256;68709;-70
2023/07/23 04:18:50;;;;;;;2.90;1.90;;;;;;;29.50;44.49;99895.27;107651;1258;71210;-69
2023/07/23 04:21:24;;;;;;;1.90;1.60;;;;;;;29.58;44.72;99893.23;107868;1256;61642;-70
2023/07/23 04:23:53;;;;;;;2.20;1.80;;;;;;;29.60;44.53;99893.87;107644;1257;59787;-68
2023/07/23 04:26:21;;;;;;;3.60;1.70;;;;;;;29.44;44.35;99895.55;107631;1257;73045;-69
2023/07/23 04:28:49;;;;;;;1.70;1.50;;;;;;;29.36;44.50;99900.52;107663;1259;70290;-69
2023/07/23 04:31:17;;;;;;;2.60;1.70;;;;;;;29.51;44.39;99897.18;107709;1257;72606;-69
2023/07/23 04:33:44;;;;;;;4.60;2.00;;;;;;;29.36;44.64;99897.90;107767;1257;61679;-69
2023/07/23 04:36:12;;;;;;;2.00;1.80;;;;;;;29.18;44.60;99901.54;107756;1259;59953;-69
2023/07/23 04:38:41;;;;;;;1.90;1.60;;;;;;;29.28;44.41;99900.83;107728;1257;73003;-70
2023/07/23 04:41:09;;;;;;;3.40;2.00;;;;;;;29.18;44.36;99910.11;107594;1259;68947;-70
2023/07/23 04:43:37;;;;;;;3.60;2.40;;;;;;;29.20;44.37;99916.20;107747;1259;72678;-70
2023/07/23 04:46:04;;;;;;;2.60;1.80;;;;;;;29.08;44.63;99916.14;107705;1256;61898;-69
2023/07/23 04:48:33;;;;;;;4.20;2.40;;;;;;;29.07;44.64;99918.70;107724;1256;60023;-69
2023/07/23 04:51:03;;;;;;;2.70;2.40;;;;;;;29.01;44.75;99918.98;107839;1256;73051;-69
2023/07/23 04:53:31;;;;;;;;;;;;;;;28.86;44.96;99912.39;107808;1256;70305;-69
2023/07/23 04:55:59;;;;;;;2.90;2.60;;;;;;;28.77;45.01;99908.73;107778;1256;72415;-69
2023/07/23 04:58:26;;;;;;;3.30;2.20;;;;;;;28.80;45.68;99911.23;107770;1258;61695;-70
2023/07/23 05:00:54;;;;;;;3.80;2.50;;;;;;;29.11;45.22;99915.52;107766;1256;59099;-70
2023/07/23 05:03:21;;;;;;;3.50;2.40;;;;;;;29.54;44.66;99908.05;107875;1256;72125;-68
2023/07/23 05:05:49;;;;;;;5.20;2.70;;;;;;;30.02;44.10;99904.88;107652;1256;70087;-67
2023/07/23 05:08:20;;;;;;;3.50;2.70;;;;;;;30.48;42.53;99905.63;107983;1258;72696;-67
2023/07/23 05:10:48;;;;;;;3.30;2.50;;;;;;;30.50;41.64;99914.52;107924;1254;60800;-69
2023/07/23 05:13:15;;;;;;;4.80;2.80;;;;;;;30.42;41.53;99912.84;107962;1253;60548;-68
2023/07/23 05:15:42;;;;;;;4.10;3.00;;;;;;;30.32;41.86;99910.98;107953;1253;71791;-69
2023/07/23 05:18:10;;;;;;;3.00;2.70;;;;;;;30.04;41.97;99907.73;108067;1253;70973;-70
2023/07/23 05:20:37;;;;;;;2.60;2.40;;;;;;;29.82;42.27;99908.55;107885;1253;72719;-69
2023/07/23 05:23:04;;;;;;;5.40;2.80;;;;;;;29.73;42.41;99908.36;107893;1253;61771;-69
2023/07/23 05:25:32;;;;;;;6.40;2.40;;;;;;;29.35;43.37;99902.15;108090;1253;60474;-70
2023/07/23 05:28:00;;;;;;;4.20;2.90;;;;;;;29.50;43.59;99903.94;108105;1253;73337;-68
2023/07/23 05:30:28;;;;;;;5.50;3.20;;;;;;;29.00;44.16;99904.61;108112;1253;70328;-69
2023/07/23 05:32:55;;;;;;;3.70;2.80;;;;;;;28.84;44.58;99905.98;108104;1253;72822;-69
2023/07/23 05:35:23;;;;;;;3.60;2.90;;;;;;;28.85;44.22;99904.45;108106;1253;61759;-69
2023/07/23 05:37:50;;;;;;;3.50;2.90;;;;;;;28.77;44.52;99906.14;108076;1253;59958;-68
2023/07/23 05:40:17;;;;;;;4.60;3.10;;;;;;;28.80;44.71;99903.98;108098;1253;72968;-70
2023/07/23 05:42:45;;;;;;;3.70;3.00;;;;;;;29.02;44.31;99898.64;108086;1253;70580;-69
2023/07/23 05:45:12;;;;;;;3.60;3.30;;;;;;;29.34;43.34;99904.95;108111;1253;72683;-69
2023/07/23 05:47:40;;;;;;;3.50;2.80;;;;;;;29.34;43.68;99904.09;108136;1253;62118;-69
2023/07/23 05:50:08;;;;;;;5.80;2.90;;;;;;;29.32;43.95;99901.64;108113;1257;60083;-69
2023/07/23 05:52:35;;;;;;;4.90;2.90;;;;;;;29.31;43.39;99907.71;107944;1253;73409;-70
2023/07/23 05:55:03;;;;;;;4.60;3.20;;;;;;;29.51;43.45;99911.02;108075;1253;70083;-69
2023/07/23 05:57:30;;;;;;;4.00;2.90;;;;;;;30.19;42.22;99907.64;108129;1253;71793;-70
2023/07/23 05:59:57;;;;;;;6.10;3.00;;;;;;;30.77;41.07;99908.96;107940;1253;62189;-69
2023/07/23 06:02:25;;;;;;;3.50;3.10;;;;;;;31.08;40.44;99903.70;108123;1253;60014;-70
2023/07/23 06:04:52;;;;;;;5.20;2.70;;;;;;;31.41;39.66;99915.89;107905;1253;73008;-69
2023/07/23 06:07:19;;;;;;;4.40;3.10;;;;;;;31.27;39.92;99916.51;108094;1253;69942;-71
2023/07/23 06:09:47;;;;;;;5.10;3.10;;;;;;;31.39;39.98;99922.14;107941;1253;70450;-69
2023/07/23 06:12:14;;;;;;;3.70;3.00;;;;;;;31.64;39.47;99921.95;108042;1253;60075;-71
2023/07/23 06:14:41;;;;;;;3.30;2.90;;;;;;;31.35;39.68;99921.48;108039;1253;59605;-69
2023/07/23 06:17:09;;;;;;;4.80;3.10;;;;;;;31.11;39.74;99921.39;107989;1257;72482;-69
2023/07/23 06:19:36;;;;;;;5.70;3.30;;;;;;;31.23;39.80;99920.40;108092;1253;70092;-70
2023/07/23 06:22:04;;;;;;;3.30;2.70;;;;;;;31.10;40.10;99918.46;108097;1253;71148;-71
2023/07/23 06:24:31;;;;;;;3.20;2.90;;;;;;;31.22;39.78;99919.52;108128;1253;61925;-70
2023/07/23 06:26:59;;;;;;;5.20;3.30;;;;;;;31.08;39.93;99919.78;108112;1258;59923;-70
2023/07/23 06:29:26;;;;;;;5.70;3.60;;;;;;;31.05;39.99;99921.02;108157;1253;72504;-69
2023/07/23 06:31:54;;;;;;;4.10;2.90;;;;;;;31.08;40.11;99922.87;108147;1257;69968;-68
2023/07/23 06:34:21;;;;;;;5.50;2.80;;;;;;;31.08;39.80;99921.72;108099;1253;71508;-70
2023/07/23 06:36:48;;;;;;;5.30;3.20;;;;;;;31.06;39.91;99920.60;108096;1253;61687;-70
2023/07/23 06:39:16;;;;;;;3.60;2.90;;;;;;;31.07;39.84;99924.66;108118;1253;59968;-70
2023/07/23 06:41:43;;;;;;;3.00;2.60;;;;;;;31.38;39.22;99924.27;108173;1256;73543;-70
2023/07/23 06:44:11;;;;;;;3.40;2.70;;;;;;;31.71;38.03;99926.27;108205;1253;70112;-70
2023/07/23 06:46:38;;;;;;;4.40;2.90;;;;;;;31.83;38.33;99930.13;108093;1253;70836;-70
2023/07/23 06:49:06;;;;;;;4.00;2.70;;;;;;;31.68;38.35;99932.29;108133;1257;60532;-69
2023/07/23 06:51:33;;;;;;;3.20;2.90;;;;;;;31.65;38.48;99931.70;108220;1253;60003;-70
2023/07/23 06:54:02;;;;;;;3.20;2.70;;;;;;;31.89;38.31;99927.53;107992;1253;73433;-71
2023/07/23 06:56:29;;;;;;;3.40;3.10;;;;;;;32.09;38.19;99928.00;108149;1253;70708;-70
2023/07/23 06:58:56;;;;;;;5.70;3.20;;;;;;;32.39;37.69;99925.02;108162;1256;72638;-70
2023/07/23 07:01:24;;;;;;;4.90;2.90;;;;;;;32.59;37.17;99926.32;108119;1253;59713;-70
2023/07/23 07:03:53;;;;;;;4.10;3.10;;;;;;;32.71;37.61;99930.93;108188;1257;60035;-70
2023/07/23 07:06:20;;;;;;;6.50;2.90;;;;;;;32.87;37.82;99928.03;108229;1253;73026;-70
2023/07/23 07:08:48;;;;;;;5.20;3.80;;;;;;;33.57;36.11;99926.86;108165;1253;70398;-70
2023/07/23 07:11:15;;;;;;;3.30;3.00;;;;;;;33.70;35.47;99926.35;108134;1253;62455;-70
2023/07/23 07:13:43;;;;;;;5.80;3.30;;;;;;;33.80;35.31;99919.90;108151;1253;60105;-69
2023/07/23 07:16:11;;;;;;;4.40;2.80;;;;;;;33.84;34.91;99919.51;108119;1253;59152;-69
2023/07/23 07:18:38;;;;;;;3.10;2.60;;;;;;;34.12;34.44;99921.68;108135;1253;64145;-70
2023/07/23 07:21:06;;;;;;;9.70;3.40;;;;;;;34.34;34.03;99924.00;108170;1253;61336;-70
2023/07/23 07:23:34;;;;;;;5.90;3.80;;;;;;;34.45;33.90;99920.75;108178;1253;64588;-70
2023/07/23 07:26:01;;;;;;;4.80;3.10;;;;;;;34.51;33.94;99923.58;108203;1253;59577;-70
2023/07/23 07:28:31;;;;;;;3.60;2.80;;;;;;;34.64;33.37;99928.66;108165;1253;59536;-69
2023/07/23 07:30:59;;;;;;;5.00;3.00;;;;;;;34.56;33.94;99936.55;108172;1253;62832;-68
2023/07/23 07:33:27;;;;;;;2.80;2.60;;;;;;;34.08;33.94;99930.25;108201;1256;61409;-69
2023/07/23 07:35:55;;;;;;;5.00;3.60;;;;;;;33.81;34.17;99935.80;108214;1253;62468;-71
2023/07/23 07:38:23;;;;;;;3.50;2.70;;;;;;;33.93;34.48;99935.39;108218;1253;59530;-70
2023/07/23 07:40:51;;;;;;;4.60;2.90;;;;;;;34.08;34.09;99932.58;108167;1253;59513;-69
2023/07/23 07:43:18;;;;;;;3.60;3.30;;;;;;;34.19;34.04;99938.32;108180;1254;63073;-69
2023/07/23 07:45:47;;;;;;;4.40;3.00;;;;;;;34.23;34.30;99937.17;108046;1254;60260;-69
2023/07/23 07:48:15;;;;;;;5.00;3.00;;;;;;;34.31;33.90;99939.15;108218;1253;63863;-71
2023/07/23 07:50:42;;;;;;;3.50;3.00;;;;;;;34.42;33.71;99939.44;108202;1253;59602;-71
2023/07/23 07:53:09;;;;;;;4.90;3.40;;;;;;;34.62;33.77;99935.41;108180;1256;59745;-70
2023/07/23 07:55:41;;;;;;;4.20;2.90;;;;;;;34.65;33.17;99937.29;108133;1254;64155;-71
2023/07/23 07:58:13;;;;;;;3.70;2.60;;;;;;;34.62;33.25;99943.44;108137;1253;61397;-69
2023/07/23 08:00:41;;;;;;;5.50;3.00;;;;;;;34.84;33.04;99944.41;108127;1253;63053;-69
2023/07/23 08:03:09;;;;;;;6.30;4.50;;;;;;;35.03;32.59;99950.63;108134;1253;61101;-69
2023/07/23 08:05:37;;;;;;;4.80;2.90;;;;;;;35.55;31.91;99951.69;108211;1253;59206;-70
2023/07/23 08:08:05;;;;;;;3.70;2.60;;;;;;;35.76;31.55;99949.98;108113;1253;65132;-70
2023/07/23 08:10:34;;;;;;;4.50;2.80;;;;;;;35.83;31.35;99953.66;108147;1253;60124;-70
2023/07/23 08:13:02;;;;;;;5.90;3.10;;;;;;;35.80;31.71;99959.04;108155;1257;63748;-70
2023/07/23 08:15:31;;;;;;;3.90;3.00;;;;;;;35.81;31.64;99959.24;108057;1254;58445;-70
2023/07/23 08:18:01;;;;;;;3.20;2.90;;;;;;;35.69;31.52;99957.00;108121;1254;59676;-69
2023/07/23 08:20:32;;;;;;;;;;;;;;;35.65;31.39;99955.69;108220;1254;63601;-70
2023/07/23 08:23:00;;;;;;;6.00;3.30;;;;;;;35.49;31.57;99956.30;108081;1253;60241;-71
2023/07/23 08:25:29;;;;;;;3.00;2.70;;;;;;;35.36;32.00;99959.14;108019;1254;62503;-72
2023/07/23 08:28:00;;;;;;;5.60;2.80;;;;;;;35.41;32.03;99964.19;108239;1253;60517;-69
2023/07/23 08:30:29;;;;;;;3.80;2.30;;;;;;;35.89;31.52;99964.01;108231;1253;60519;-71
2023/07/23 08:33:00;;;;;;;4.10;2.90;;;;;;;36.39;30.96;99960.45;108213;1253;65298;-70
2023/07/23 08:35:28;;;;;;;4.50;3.00;;;;;;;36.58;30.41;99961.63;108254;1253;61515;-71
2023/07/23 08:37:56;;;;;;;4.10;2.80;;;;;;;36.94;30.12;99957.98;108148;1253;62507;-71
2023/07/23 08:40:24;;;;;;;6.10;2.90;;;;;;;37.29;29.41;99961.80;108172;1253;60434;-70
2023/07/23 08:43:06;;;;;;;3.60;2.80;;;;;;;37.39;29.29;99962.39;108254;1253;60338;-69
2023/07/23 08:45:49;;;;;;;3.10;2.70;;;;;;;37.28;29.16;99959.27;108092;1253;72627;-71
2023/07/23 08:48:20;;;;;;;4.30;3.00;;;;;;;36.96;29.28;99958.90;108107;1253;61332;-68
2023/07/23 08:50:48;;;;;;;4.90;3.00;;;;;;;37.12;29.14;99957.36;108129;1253;62884;-71
2023/07/23 08:53:17;;;;;;;4.10;2.70;;;;;;;37.22;28.94;99963.16;108178;1253;60470;-70
2023/07/23 08:55:46;;;;;;;3.80;2.70;;;;;;;37.22;28.70;99966.04;108183;1252;58727;-71
2023/07/23 08:58:16;;;;;;;4.70;2.90;;;;;;;37.17;28.42;99960.48;108104;1255;65475;-71
2023/07/23 09:00:44;;;;;;;3.70;3.10;;;;;;;37.28;28.56;99960.63;108045;1258;61332;-72
2023/07/23 09:03:14;;;;;;;3.90;2.70;;;;;;;37.53;28.43;99962.81;108139;1257;64076;-69
2023/07/23 09:05:41;;;;;;;3.70;2.50;;;;;;;37.71;27.83;99960.77;108145;1253;60435;-71
2023/07/23 09:08:08;;;;;;;3.20;2.90;;;;;;;37.80;28.05;99963.00;108166;1253;61021;-71
2023/07/23 09:10:36;;;;;;;4.50;2.60;;;;;;;37.91;27.42;99963.24;108138;1253;65015;-71
2023/07/23 09:13:11;;;;;;;3.30;2.50;;;;;;;38.01;26.94;99963.00;108151;1253;60593;-70
2023/07/23 09:15:38;;;;;;;3.70;2.60;;;;;;;38.09;26.91;99960.27;108183;1258;62441;-70
2023/07/23 09:18:07;;;;;;;4.20;2.80;;;;;;;38.17;26.80;99960.88;108131;1257;60296;-69
2023/07/23 09:20:34;;;;;;;3.80;2.90;;;;;;;38.37;26.82;99960.24;108192;1257;60987;-71
2023/07/23 09:23:06;;;;;;;4.50;2.70;;;;;;;38.29;26.61;99961.35;108108;1254;65376;-71
2023/07/23 09:25:33;;;;;;;4.20;2.80;;;;;;;38.35;26.61;99963.98;108223;1258;61857;-70
2023/07/23 09:28:01;;;;;;;3.20;2.40;;;;;;;38.47;25.97;99962.60;107942;1256;63794;-71
2023/07/23 09:30:28;;;;;;;3.10;2.60;;;;;;;38.63;26.07;99961.66;108052;1259;59035;-70
2023/07/23 09:32:59;;;;;;;4.50;2.20;;;;;;;38.90;25.42;99960.21;107997;1259;59027;-69
2023/07/23 09:35:30;;;;;;;4.00;2.90;;;;;;;38.95;25.46;99962.02;108166;1253;64906;-71
2023/07/23 09:37:57;;;;;;;;;;;;;;;39.00;25.51;99966.99;108158;1254;61902;-70
2023/07/23 09:40:48;;;;;;;4.80;2.60;;;;;;;39.05;25.18;99964.73;107937;1255;62615;-70
2023/07/23 09:43:15;;;;;;;8.50;2.60;;;;;;;38.79;24.75;99967.52;108157;1256;60531;-70
2023/07/23 09:45:42;;;;;;;4.70;2.10;;;;;;;38.75;24.74;99971.46;108136;1254;60525;-70
2023/07/23 09:48:10;;;;;;;3.00;2.20;;;;;;;38.70;24.83;99968.51;108106;1254;64929;-70
2023/07/23 09:50:44;;;;;;;2.70;2.20;;;;;;;38.86;24.80;99964.34;108030;1253;62000;-72
2023/07/23 09:53:15;;;;;;;4.60;2.40;;;;;;;38.71;24.39;99963.02;108160;1254;63852;-70
2023/07/23 09:55:44;;;;;;;3.60;2.60;;;;;;;38.62;24.31;99968.17;108255;1256;60299;-71
2023/07/23 09:58:11;;;;;;;3.80;2.20;;;;;;;38.84;24.13;99967.25;108115;1254;60223;-71
2023/07/23 10:00:39;;;;;;;3.50;2.50;;;;;;;39.20;24.22;99964.98;108092;1254;64934;-69
2023/07/23 10:03:06;;;;;;;6.70;2.80;;;;;;;39.47;23.93;99965.21;108252;1254;61444;-71
2023/07/23 10:05:35;;;;;;;3.10;2.50;;;;;;;39.50;23.60;99968.13;108150;1256;63876;-71
2023/07/23 10:08:03;;;;;;;3.30;2.30;;;;;;;39.53;23.64;99968.45;108017;1254;60370;-70
2023/07/23 10:10:31;;;;;;;4.10;2.70;;;;;;;39.47;23.46;99966.10;108119;1256;60549;-71
2023/07/23 10:12:58;;;;;;;2.50;2.30;;;;;;;39.67;23.41;99965.46;108147;1254;64852;-70
2023/07/23 10:15:27;;;;;;;2.40;2.10;;;;;;;39.90;23.47;99965.60;108121;1254;60332;-72
2023/07/23 10:17:56;;;;;;;5.80;2.60;;;;;;;39.79;23.40;99965.61;108128;1254;62498;-71
2023/07/23 10:20:23;;;;;;;4.80;2.70;;;;;;;39.70;23.56;99963.54;108149;1253;60361;-71
2023/07/23 10:22:51;;;;;;;4.80;2.60;;;;;;;39.62;24.03;99965.39;107955;1257;60364;-72
2023/07/23 10:25:25;;;;;;;3.40;2.80;;;;;;;39.40;23.41;99962.66;108025;1254;64922;-72
2023/07/23 10:28:06;;;;;;;3.40;2.50;;;;;;;39.34;23.67;99956.22;108128;1255;60373;-70
2023/07/23 10:30:39;;;;;;;3.60;2.80;;;;;;;39.48;24.05;99957.85;108209;1253;63775;-71
2023/07/23 10:33:10;;;;;;;6.30;2.60;;;;;;;39.79;23.86;99958.55;108122;1259;60342;-70
2023/07/23 10:36:04;;;;;;;6.20;2.60;;;;;;;39.89;23.70;99957.32;108204;1253;60863;-72
2023/07/23 10:38:35;;;;;;;3.20;2.70;;;;;;;39.93;23.78;99958.43;108088;1257;63700;-70
2023/07/23 10:41:03;;;;;;;3.70;2.60;;;;;;;39.76;23.76;99959.81;108111;1256;61478;-71
2023/07/23 10:43:38;;;;;;;4.20;2.60;;;;;;;39.21;24.22;99959.48;108048;1258;63857;-70
2023/07/23 10:46:11;;;;;;;5.20;3.00;;;;;;;38.89;24.46;99959.56;108185;1253;59167;-70
2023/07/23 10:48:41;;;;;;;5.10;2.70;;;;;;;38.66;24.60;99966.34;108174;1257;60448;-71
2023/07/23 10:51:10;;;;;;;4.20;2.50;;;;;;;38.38;24.67;99967.67;108221;1254;65041;-70
2023/07/23 10:53:40;;;;;;;6.00;3.10;;;;;;;38.17;25.27;99964.94;107989;1254;61396;-71
2023/07/23 10:56:26;;;;;;;4.70;2.60;;;;;;;38.03;25.37;99964.29;108069;1254;63766;-71
2023/07/23 10:58:55;;;;;;;3.20;2.80;;;;;;;37.64;25.63;99964.94;108118;1253;60402;-70
2023/07/23 11:01:23;;;;;;;4.90;2.70;;;;;;;37.39;26.25;99966.91;108176;1254;60437;-68
2023/07/23 11:03:57;;;;;;;4.40;2.90;;;;;;;37.10;26.50;99968.79;108165;1253;64931;-71
2023/07/23 11:06:30;;;;;;;4.30;2.70;;;;;;;36.96;26.62;99967.75;108117;1254;60347;-70
2023/07/23 11:09:02;;;;;;;4.60;3.00;;;;;;;36.69;26.51;99966.08;108132;1254;62424;-71
2023/07/23 11:11:35;;;;;;;5.20;3.20;;;;;;;36.38;26.99;99966.73;108017;1253;60452;-70
2023/07/23 11:14:04;;;;;;;4.20;2.90;;;;;;;36.31;27.10;99967.95;108188;1254;60329;-68
2023/07/23 11:16:35;;;;;;;5.00;3.10;;;;;;;36.35;26.90;99972.23;108213;1254;64278;-70
2023/07/23 11:19:07;;;;;;;4.20;3.10;;;;;;;36.57;26.61;99967.13;108213;1253;61292;-69
2023/07/23 11:21:43;;;;;;;3.80;3.20;;;;;;;36.76;26.69;99960.63;108067;1253;63740;-67
2023/07/23 11:24:10;;;;;;;4.10;3.00;;;;;;;36.95;26.56;99953.45;108165;1254;61219;-70
2023/07/23 11:26:38;;;;;;;4.10;3.00;;;;;;;36.88;26.49;99952.45;108082;1257;60325;-69
2023/07/23 11:29:05;;;;;;;3.30;2.90;;;;;;;36.47;26.66;99952.78;108013;1253;65167;-70
2023/07/23 11:31:34;;;;;;;4.70;3.10;;;;;;;36.21;26.70;99949.95;107945;1254;60245;-69
2023/07/23 11:34:01;;;;;;;6.00;3.00;;;;;;;36.41;26.09;99949.98;108089;1257;63727;-71